Eviapetrol I — SY5401 — position and weather

sailwx.info

Track history (hours):
 
Tides and Currents Weather Stations Pressure Air Temp Water Temp Dewpoint Dewpoint Depression Visibility Wind Speed Wind Dir Waves Ship Positions

Eviapetrol I

Last reported at 2017-May-29 18:15 UTC. Time now 2017-May-29 18:52 UTC.
Position N 37°30' E 023°44'.

Length 75 m; draft 3.4 m.

Type: Tanker. MMSI: 240285000.

Date/timePositionNaut miles runAvg speedWind from/ knotsBaromVisibWave heightAir tempDewpointWater temp
2017-May-29 18:15N 37°30' E 023°44'310.2
2017-May-29 17:59N 37°33' E 023°44'510.2
2017-May-29 17:31N 37°38' E 023°43'510.0
2017-May-29 17:01N 37°42' E 023°41'510.1
2017-May-29 16:30N 37°47' E 023°38'510.1
2017-May-29 16:01N 37°52' E 023°37'5 9.4
2017-May-29 15:31N 37°56' E 023°36'4 8.3
2017-May-29 15:01N 37°60' E 023°33'3 5.8
2017-May-29 14:29N 38°02' E 023°30'0 0.0
2017-May-29 13:29N 38°02' E 023°30'0 0.0
2017-May-29 12:59N 38°02' E 023°30'0 0.0
2017-May-29 12:29N 38°02' E 023°30'0 0.0
2017-May-29 11:59N 38°02' E 023°30'0 0.0
2017-May-29 11:29N 38°02' E 023°30'0 0.0
2017-May-29 10:59N 38°02' E 023°30'0 0.0
2017-May-29 10:29N 38°02' E 023°30'0 0.0
2017-May-29 09:59N 38°02' E 023°30'0 0.0
2017-May-29 09:29N 38°02' E 023°30'0 0.0
2017-May-29 08:59N 38°02' E 023°30'0 0.0
2017-May-29 08:29N 38°02' E 023°30'0 0.0
2017-May-29 07:59N 38°02' E 023°30'0 0.0
2017-May-29 07:29N 38°02' E 023°30'0 0.0
2017-May-29 07:01N 38°02' E 023°30'0 0.0
2017-May-29 06:31N 38°02' E 023°30'1 1.4
2017-May-29 06:01N 38°02' E 023°30'1 2.1
2017-May-29 05:30N 38°01' E 023°29'4 8.0
2017-May-29 05:00N 37°59' E 023°25'4 7.5
2017-May-29 04:30N 37°57' E 023°21'5 9.8
2017-May-29 04:00N 37°56' E 023°15'6 9.9
2017-May-29 03:25N 37°55' E 023°08'3 0.2
2017-May-28 11:35N 37°55' E 023°04'0 0.0
2017-May-28 11:16N 37°55' E 023°04'0 0.0
2017-May-28 10:26N 37°55' E 023°04'0 0.0
2017-May-28 09:56N 37°55' E 023°04'0 0.1
2017-May-28 09:30N 37°54' E 023°04'0 0.1
2017-May-28 08:13N 37°55' E 023°04'0 0.1
2017-May-28 07:55N 37°55' E 023°04'3 4.6
2017-May-28 07:19N 37°54' E 023°08'310.5
2017-May-28 07:00N 37°53' E 023°12'510.7
2017-May-28 06:30N 37°52' E 023°18'510.5
2017-May-28 06:01N 37°51' E 023°25'510.3
2017-May-28 05:31N 37°51' E 023°31'510.1
2017-May-28 05:01N 37°50' E 023°38'5 9.3
2017-May-28 04:31N 37°47' E 023°41'5 9.8
2017-May-28 03:58N 37°42' E 023°44'5 9.8
2017-May-28 03:30N 37°39' E 023°49'  
2017-May-25 03:26N 37°38' E 025°52'610.7
2017-May-25 02:54N 37°37' E 025°46'410.6
2017-May-25 02:30N 37°36' E 025°41'510.7
2017-May-25 02:00N 37°34' E 025°34'510.6
2017-May-25 01:30N 37°33' E 025°28'510.3
2017-May-25 01:00N 37°32' E 025°21'5 9.9
2017-May-25 00:30N 37°31' E 025°15'5 9.8
2017-May-25 00:00N 37°31' E 025°09'5 9.9
2017-May-24 23:30N 37°31' E 025°03'5 9.9
2017-May-24 23:00N 37°32' E 024°56'510.2
2017-May-24 22:30N 37°32' E 024°50'2910.0
2017-May-24 19:39N 37°31' E 024°14'510.0
2017-May-24 19:09N 37°32' E 024°08'210.2
2017-May-24 18:58N 37°33' E 024°06'510.3
2017-May-24 18:30N 37°35' E 024°00'510.3
2017-May-24 18:00N 37°37' E 023°54'510.2
2017-May-24 17:30N 37°38' E 023°48'5 9.6
2017-May-24 17:00N 37°41' E 023°43'510.0
2017-May-24 16:30N 37°45' E 023°40'510.0
2017-May-24 16:00N 37°50' E 023°37'510.0
2017-May-24 15:30N 37°54' E 023°35'4 8.5
2017-May-24 15:00N 37°58' E 023°33'4 8.1
2017-May-24 14:31N 38°02' E 023°35'0 0.2
2017-May-24 13:25N 38°02' E 023°36'0 0.0
2017-May-24 12:58N 38°02' E 023°36'0 0.0
2017-May-24 12:22N 38°02' E 023°36'0 0.0
2017-May-24 11:58N 38°02' E 023°36'0 0.0
2017-May-24 11:28N 38°02' E 023°36'0 0.0
2017-May-24 10:58N 38°02' E 023°36'0 0.0
2017-May-24 10:28N 38°02' E 023°36'0 0.0
2017-May-24 09:55N 38°02' E 023°36'0 0.0
2017-May-24 09:25N 38°02' E 023°36'0 0.0
2017-May-24 08:58N 38°02' E 023°36'0 0.0
2017-May-24 08:28N 38°02' E 023°36'0 0.0
2017-May-24 07:58N 38°02' E 023°36'0 0.0
2017-May-24 07:22N 38°02' E 023°36'0 0.0
2017-May-24 06:58N 38°02' E 023°36'0 0.0
2017-May-24 06:28N 38°02' E 023°36'0 0.0
2017-May-24 05:58N 38°02' E 023°36'0 0.1
2017-May-24 05:30N 38°02' E 023°36'3 6.3
2017-May-24 05:00N 38°01' E 023°32'1 2.3
2017-May-24 04:29N 38°02' E 023°31'0 0.0
2017-May-24 03:59N 38°02' E 023°31'0 0.0
2017-May-24 03:29N 38°02' E 023°31'0 0.0
2017-May-24 02:59N 38°02' E 023°31'0 0.0
2017-May-24 02:29N 38°02' E 023°31'0 0.0
2017-May-24 01:59N 38°02' E 023°31'0 0.0
2017-May-24 01:29N 38°02' E 023°31'0 0.0
2017-May-24 00:59N 38°02' E 023°31'0 0.0
2017-May-24 00:29N 38°02' E 023°31'0 0.0
2017-May-23 23:59N 38°02' E 023°31'0 0.0
2017-May-23 23:29N 38°02' E 023°31'0 0.0
2017-May-23 22:59N 38°02' E 023°31'0 0.0
2017-May-23 22:29N 38°02' E 023°31'0 0.0
2017-May-23 21:59N 38°02' E 023°31'0 0.0
2017-May-23 21:29N 38°02' E 023°31'0 0.0
2017-May-23 20:59N 38°02' E 023°31'0 0.0
2017-May-23 20:29N 38°02' E 023°31'0 0.0
2017-May-23 19:59N 38°02' E 023°31'0 0.0
2017-May-23 19:29N 38°02' E 023°31'0 0.0
2017-May-23 18:59N 38°02' E 023°31'0 0.0
2017-May-23 18:29N 38°02' E 023°31'0 0.0
2017-May-23 17:59N 38°02' E 023°31'0 0.0
2017-May-23 17:29N 38°02' E 023°31'0 0.0
2017-May-23 16:59N 38°02' E 023°31'0 0.0
2017-May-23 16:31N 38°02' E 023°31'0 0.8
2017-May-23 16:01N 38°02' E 023°30'0 0.5
2017-May-23 15:31N 38°01' E 023°30'3 6.9
2017-May-23 15:01N 37°60' E 023°27'9 8.6
2017-May-23 14:00N 37°56' E 023°17'610.4
2017-May-23 13:29N 37°55' E 023°10'  
2017-May-20 18:37N 37°55' E 023°01'0 0.1
2017-May-20 18:13N 37°55' E 023°01'2 5.5
2017-May-20 17:53N 37°54' E 023°04'1 0.3
2017-May-20 12:15N 37°55' E 023°05'1 0.0
2017-May-19 21:47N 37°55' E 023°06'1 1.5
2017-May-19 21:24N 37°55' E 023°07'510.3
2017-May-19 20:57N 37°53' E 023°12'510.8
2017-May-19 20:30N 37°53' E 023°18'510.7
2017-May-19 20:00N 37°51' E 023°25'510.4
2017-May-19 19:30N 37°50' E 023°31'510.6
2017-May-19 19:00N 37°51' E 023°38'510.5
2017-May-19 18:30N 37°46' E 023°41'  
Track history (hours):
 
Tides and Currents Weather Stations Pressure Air Temp Water Temp Dewpoint Dewpoint Depression Visibility Wind Speed Wind Dir Waves Ship Positions

Eviapetrol I

Last reported at 2017-May-29 18:15 UTC. Time now 2017-May-29 18:52 UTC.
Position N 37°30' E 023°44'.

Length 75 m; draft 3.4 m.

Type: Tanker. MMSI: 240285000.

Date/timePositionNaut miles runAvg speedWind from/ knotsBaromVisibWave heightAir tempDewpointWater temp
2017-May-29 18:15N 37°30' E 023°44'310.2
2017-May-29 17:59N 37°33' E 023°44'510.2
2017-May-29 17:31N 37°38' E 023°43'510.0
2017-May-29 17:01N 37°42' E 023°41'510.1
2017-May-29 16:30N 37°47' E 023°38'510.1
2017-May-29 16:01N 37°52' E 023°37'5 9.4
2017-May-29 15:31N 37°56' E 023°36'4 8.3
2017-May-29 15:01N 37°60' E 023°33'3 5.8
2017-May-29 14:29N 38°02' E 023°30'0 0.0
2017-May-29 13:29N 38°02' E 023°30'0 0.0
2017-May-29 12:59N 38°02' E 023°30'0 0.0
2017-May-29 12:29N 38°02' E 023°30'0 0.0
2017-May-29 11:59N 38°02' E 023°30'0 0.0
2017-May-29 11:29N 38°02' E 023°30'0 0.0
2017-May-29 10:59N 38°02' E 023°30'0 0.0
2017-May-29 10:29N 38°02' E 023°30'0 0.0
2017-May-29 09:59N 38°02' E 023°30'0 0.0
2017-May-29 09:29N 38°02' E 023°30'0 0.0
2017-May-29 08:59N 38°02' E 023°30'0 0.0
2017-May-29 08:29N 38°02' E 023°30'0 0.0
2017-May-29 07:59N 38°02' E 023°30'0 0.0
2017-May-29 07:29N 38°02' E 023°30'0 0.0
2017-May-29 07:01N 38°02' E 023°30'0 0.0
2017-May-29 06:31N 38°02' E 023°30'1 1.4
2017-May-29 06:01N 38°02' E 023°30'1 2.1
2017-May-29 05:30N 38°01' E 023°29'4 8.0
2017-May-29 05:00N 37°59' E 023°25'4 7.5
2017-May-29 04:30N 37°57' E 023°21'5 9.8
2017-May-29 04:00N 37°56' E 023°15'6 9.9
2017-May-29 03:25N 37°55' E 023°08'3 0.2
2017-May-28 11:35N 37°55' E 023°04'0 0.0
2017-May-28 11:16N 37°55' E 023°04'0 0.0
2017-May-28 10:26N 37°55' E 023°04'0 0.0
2017-May-28 09:56N 37°55' E 023°04'0 0.1
2017-May-28 09:30N 37°54' E 023°04'0 0.1
2017-May-28 08:13N 37°55' E 023°04'0 0.1
2017-May-28 07:55N 37°55' E 023°04'3 4.6
2017-May-28 07:19N 37°54' E 023°08'310.5
2017-May-28 07:00N 37°53' E 023°12'510.7
2017-May-28 06:30N 37°52' E 023°18'510.5
2017-May-28 06:01N 37°51' E 023°25'510.3
2017-May-28 05:31N 37°51' E 023°31'510.1
2017-May-28 05:01N 37°50' E 023°38'5 9.3
2017-May-28 04:31N 37°47' E 023°41'5 9.8
2017-May-28 03:58N 37°42' E 023°44'5 9.8
2017-May-28 03:30N 37°39' E 023°49'  
2017-May-25 03:26N 37°38' E 025°52'610.7
2017-May-25 02:54N 37°37' E 025°46'410.6
2017-May-25 02:30N 37°36' E 025°41'510.7
2017-May-25 02:00N 37°34' E 025°34'510.6
2017-May-25 01:30N 37°33' E 025°28'510.3
2017-May-25 01:00N 37°32' E 025°21'5 9.9
2017-May-25 00:30N 37°31' E 025°15'5 9.8
2017-May-25 00:00N 37°31' E 025°09'5 9.9
2017-May-24 23:30N 37°31' E 025°03'5 9.9
2017-May-24 23:00N 37°32' E 024°56'510.2
2017-May-24 22:30N 37°32' E 024°50'2910.0
2017-May-24 19:39N 37°31' E 024°14'510.0
2017-May-24 19:09N 37°32' E 024°08'210.2
2017-May-24 18:58N 37°33' E 024°06'510.3
2017-May-24 18:30N 37°35' E 024°00'510.3
2017-May-24 18:00N 37°37' E 023°54'510.2
2017-May-24 17:30N 37°38' E 023°48'5 9.6
2017-May-24 17:00N 37°41' E 023°43'510.0
2017-May-24 16:30N 37°45' E 023°40'510.0
2017-May-24 16:00N 37°50' E 023°37'510.0
2017-May-24 15:30N 37°54' E 023°35'4 8.5
2017-May-24 15:00N 37°58' E 023°33'4 8.1
2017-May-24 14:31N 38°02' E 023°35'0 0.2
2017-May-24 13:25N 38°02' E 023°36'0 0.0
2017-May-24 12:58N 38°02' E 023°36'0 0.0
2017-May-24 12:22N 38°02' E 023°36'0 0.0
2017-May-24 11:58N 38°02' E 023°36'0 0.0
2017-May-24 11:28N 38°02' E 023°36'0 0.0
2017-May-24 10:58N 38°02' E 023°36'0 0.0
2017-May-24 10:28N 38°02' E 023°36'0 0.0
2017-May-24 09:55N 38°02' E 023°36'0 0.0
2017-May-24 09:25N 38°02' E 023°36'0 0.0
2017-May-24 08:58N 38°02' E 023°36'0 0.0
2017-May-24 08:28N 38°02' E 023°36'0 0.0
2017-May-24 07:58N 38°02' E 023°36'0 0.0
2017-May-24 07:22N 38°02' E 023°36'0 0.0
2017-May-24 06:58N 38°02' E 023°36'0 0.0
2017-May-24 06:28N 38°02' E 023°36'0 0.0
2017-May-24 05:58N 38°02' E 023°36'0 0.1
2017-May-24 05:30N 38°02' E 023°36'3 6.3
2017-May-24 05:00N 38°01' E 023°32'1 2.3
2017-May-24 04:29N 38°02' E 023°31'0 0.0
2017-May-24 03:59N 38°02' E 023°31'0 0.0
2017-May-24 03:29N 38°02' E 023°31'0 0.0
2017-May-24 02:59N 38°02' E 023°31'0 0.0
2017-May-24 02:29N 38°02' E 023°31'0 0.0
2017-May-24 01:59N 38°02' E 023°31'0 0.0
2017-May-24 01:29N 38°02' E 023°31'0 0.0
2017-May-24 00:59N 38°02' E 023°31'0 0.0
2017-May-24 00:29N 38°02' E 023°31'0 0.0
2017-May-23 23:59N 38°02' E 023°31'0 0.0
2017-May-23 23:29N 38°02' E 023°31'0 0.0
2017-May-23 22:59N 38°02' E 023°31'0 0.0
2017-May-23 22:29N 38°02' E 023°31'0 0.0
2017-May-23 21:59N 38°02' E 023°31'0 0.0
2017-May-23 21:29N 38°02' E 023°31'0 0.0
2017-May-23 20:59N 38°02' E 023°31'0 0.0
2017-May-23 20:29N 38°02' E 023°31'0 0.0
2017-May-23 19:59N 38°02' E 023°31'0 0.0
2017-May-23 19:29N 38°02' E 023°31'0 0.0
2017-May-23 18:59N 38°02' E 023°31'0 0.0
2017-May-23 18:29N 38°02' E 023°31'0 0.0
2017-May-23 17:59N 38°02' E 023°31'0 0.0
2017-May-23 17:29N 38°02' E 023°31'0 0.0
2017-May-23 16:59N 38°02' E 023°31'0 0.0
2017-May-23 16:31N 38°02' E 023°31'0 0.8
2017-May-23 16:01N 38°02' E 023°30'0 0.5
2017-May-23 15:31N 38°01' E 023°30'3 6.9
2017-May-23 15:01N 37°60' E 023°27'9 8.6
2017-May-23 14:00N 37°56' E 023°17'610.4
2017-May-23 13:29N 37°55' E 023°10'  
2017-May-20 18:37N 37°55' E 023°01'0 0.1
2017-May-20 18:13N 37°55' E 023°01'2 5.5
2017-May-20 17:53N 37°54' E 023°04'1 0.3
2017-May-20 12:15N 37°55' E 023°05'1 0.0
2017-May-19 21:47N 37°55' E 023°06'1 1.5
2017-May-19 21:24N 37°55' E 023°07'510.3
2017-May-19 20:57N 37°53' E 023°12'510.8
2017-May-19 20:30N 37°53' E 023°18'510.7
2017-May-19 20:00N 37°51' E 023°25'510.4
2017-May-19 19:30N 37°50' E 023°31'510.6
2017-May-19 19:00N 37°51' E 023°38'510.5
2017-May-19 18:30N 37°46' E 023°41'  

Dump ship's entire track history